Time,TemperatureF,DewpointF,PressureIn,WindDirection,WindDirectionDegrees,WindSpeedMPH,WindSpeedGustMPH,Humidity,HourlyPrecipIn,Conditions,Clouds,dailyrainin,SoftwareType,DateUTC
2013-08-30 00:01:00,72.5,63.4,29.98,NW,315,0.0,0.0,73,0.00,,---,0.00,VWS V14.01,2013-08-30 04:01:00,
2013-08-30 00:02:00,72.5,63.8,29.98,NW,315,0.0,0.0,74,0.00,,---,0.00,VWS V14.01,2013-08-30 04:02:00,
2013-08-30 00:05:00,72.3,63.6,29.98,NW,315,0.0,0.0,74,0.00,,---,0.00,VWS V14.01,2013-08-30 04:05:00,
2013-08-30 00:06:00,72.3,63.6,29.98,NW,315,0.0,0.0,74,0.00,,---,0.00,VWS V14.01,2013-08-30 04:06:00,
2013-08-30 00:11:00,72.1,63.8,29.98,NW,315,0.0,0.0,75,0.00,,---,0.00,VWS V14.01,2013-08-30 04:11:00,
2013-08-30 00:16:00,72.1,63.8,29.98,NW,315,0.0,0.0,75,0.00,,---,0.00,VWS V14.01,2013-08-30 04:16:00,
2013-08-30 00:19:00,71.9,63.5,29.98,NW,315,0.0,0.0,75,0.00,,---,0.00,VWS V14.01,2013-08-30 04:19:00,
2013-08-30 00:24:00,71.9,63.5,29.98,NW,315,0.0,0.0,75,0.00,,---,0.00,VWS V14.01,2013-08-30 04:24:00,
2013-08-30 00:29:00,71.7,63.4,29.98,NW,315,0.0,0.0,75,0.00,,---,0.00,VWS V14.01,2013-08-30 04:29:00,
2013-08-30 00:34:00,71.7,63.7,29.98,NW,315,0.0,0.0,76,0.00,,---,0.00,VWS V14.01,2013-08-30 04:34:00,
2013-08-30 00:39:00,71.7,63.7,29.98,NW,315,0.0,0.0,76,0.00,,---,0.00,VWS V14.01,2013-08-30 04:39:00,
2013-08-30 00:44:00,71.4,63.5,29.98,NW,315,0.0,0.0,76,0.00,,---,0.00,VWS V14.01,2013-08-30 04:44:00,
2013-08-30 00:49:00,71.4,63.5,29.98,NW,315,0.0,0.0,76,0.00,,---,0.00,VWS V14.01,2013-08-30 04:49:00,
2013-08-30 00:54:00,71.4,63.5,29.98,NW,315,0.0,0.0,76,0.00,,---,0.00,VWS V14.01,2013-08-30 04:54:00,
2013-08-30 00:59:00,71.4,63.8,29.98,NW,315,0.0,0.0,77,0.00,,---,0.00,VWS V14.01,2013-08-30 04:59:00,
2013-08-30 01:04:00,71.4,63.8,29.98,NW,315,0.0,0.0,77,0.00,,---,0.00,VWS V14.01,2013-08-30 05:04:00,
2013-08-30 01:09:00,71.2,63.6,29.97,NW,315,0.0,0.0,77,0.00,,---,0.00,VWS V14.01,2013-08-30 05:09:00,
2013-08-30 01:14:00,71.2,63.6,29.97,NW,315,0.0,0.0,77,0.00,,---,0.00,VWS V14.01,2013-08-30 05:14:00,
2013-08-30 01:19:00,71.0,63.4,29.97,NW,315,0.0,0.0,77,0.00,,---,0.00,VWS V14.01,2013-08-30 05:19:00,
2013-08-30 01:24:00,70.8,63.2,29.97,NW,315,0.0,0.0,77,0.00,,---,0.00,VWS V14.01,2013-08-30 05:24:00,
2013-08-30 01:29:00,70.8,63.6,29.97,NW,315,0.0,0.0,78,0.00,,---,0.00,VWS V14.01,2013-08-30 05:29:00,
2013-08-30 01:34:00,70.7,63.5,29.97,NW,315,0.0,0.0,78,0.00,,---,0.00,VWS V14.01,2013-08-30 05:34:00,
2013-08-30 01:39:00,70.7,63.5,29.97,SW,225,0.0,0.0,78,0.00,,---,0.00,VWS V14.01,2013-08-30 05:39:00,
2013-08-30 01:44:00,70.5,63.3,29.97,SW,225,0.0,0.0,78,0.00,,---,0.00,VWS V14.01,2013-08-30 05:44:00,
2013-08-30 01:49:00,70.5,63.3,29.97,SW,225,0.0,0.0,78,0.00,,---,0.00,VWS V14.01,2013-08-30 05:49:00,
2013-08-30 01:54:00,70.5,63.7,29.97,SW,225,0.0,0.0,79,0.00,,---,0.00,VWS V14.01,2013-08-30 05:54:00,
2013-08-30 01:59:00,70.5,63.7,29.97,SW,225,0.0,0.0,79,0.00,,---,0.00,VWS V14.01,2013-08-30 05:59:00,
2013-08-30 02:04:00,70.3,63.8,29.97,SW,225,0.0,0.0,80,0.00,,---,0.00,VWS V14.01,2013-08-30 06:04:00,
2013-08-30 02:09:00,70.3,63.8,29.97,SW,225,0.0,0.0,80,0.00,,---,0.00,VWS V14.01,2013-08-30 06:09:00,
2013-08-30 02:14:00,70.3,63.8,29.96,South,180,0.0,0.0,80,0.00,,---,0.00,VWS V14.01,2013-08-30 06:14:00,
2013-08-30 02:19:00,70.3,63.8,29.96,South,180,0.0,0.0,80,0.00,,---,0.00,VWS V14.01,2013-08-30 06:19:00,
2013-08-30 02:24:00,70.5,64.0,29.96,SSE,158,0.0,0.0,80,0.00,,---,0.00,VWS V14.01,2013-08-30 06:24:00,
2013-08-30 02:29:00,70.5,64.4,29.97,SSE,158,0.0,0.0,81,0.00,,---,0.00,VWS V14.01,2013-08-30 06:29:00,
2013-08-30 02:34:00,70.5,64.4,29.97,SSE,158,0.0,0.0,81,0.00,,---,0.00,VWS V14.01,2013-08-30 06:34:00,
2013-08-30 02:39:00,70.5,64.8,29.97,SSE,158,0.0,0.0,82,0.00,,---,0.00,VWS V14.01,2013-08-30 06:39:00,
2013-08-30 02:44:00,70.5,64.8,29.97,South,180,0.0,0.0,82,0.00,,---,0.00,VWS V14.01,2013-08-30 06:44:00,
2013-08-30 02:49:00,70.5,64.8,29.96,South,180,0.0,0.0,82,0.00,,---,0.00,VWS V14.01,2013-08-30 06:49:00,
2013-08-30 02:54:00,70.5,64.8,29.96,South,180,0.0,0.0,82,0.00,,---,0.00,VWS V14.01,2013-08-30 06:54:00,
2013-08-30 02:59:00,70.5,64.8,29.96,SSE,158,0.0,0.0,82,0.00,,---,0.00,VWS V14.01,2013-08-30 06:59:00,
2013-08-30 03:04:00,70.5,64.8,29.96,SSE,158,0.0,0.0,82,0.00,,---,0.00,VWS V14.01,2013-08-30 07:04:00,
2013-08-30 03:09:00,70.3,64.6,29.96,South,180,0.0,0.0,82,0.00,,---,0.00,VWS V14.01,2013-08-30 07:09:00,
2013-08-30 03:14:00,70.3,64.6,29.96,SSW,202,0.0,0.0,82,0.00,,---,0.00,VWS V14.01,2013-08-30 07:14:00,
2013-08-30 03:19:00,70.3,64.9,29.96,SW,225,0.0,0.0,83,0.00,,---,0.00,VWS V14.01,2013-08-30 07:19:00,
2013-08-30 03:24:00,70.1,64.7,29.96,SW,225,0.0,0.0,83,0.00,,---,0.00,VWS V14.01,2013-08-30 07:24:00,
2013-08-30 03:29:00,70.1,64.7,29.96,SW,225,0.0,0.0,83,0.00,,---,0.00,VWS V14.01,2013-08-30 07:29:00,
2013-08-30 03:34:00,70.3,65.2,29.96,SSW,202,0.0,0.0,84,0.00,,---,0.00,VWS V14.01,2013-08-30 07:34:00,
2013-08-30 03:39:00,70.1,65.1,29.96,WSW,248,0.0,0.0,84,0.00,,---,0.00,VWS V14.01,2013-08-30 07:39:00,
2013-08-30 03:44:00,70.1,65.1,29.96,SSW,202,0.0,0.0,84,0.00,,---,0.00,VWS V14.01,2013-08-30 07:44:00,
2013-08-30 03:49:00,70.1,65.1,29.96,SSW,202,0.0,0.0,84,0.00,,---,0.00,VWS V14.01,2013-08-30 07:49:00,
2013-08-30 03:54:00,70.1,65.1,29.96,SW,225,0.0,0.0,84,0.00,,---,0.00,VWS V14.01,2013-08-30 07:54:00,
2013-08-30 03:59:00,70.1,65.1,29.96,SW,225,0.0,0.0,84,0.00,,---,0.00,VWS V14.01,2013-08-30 07:59:00,
2013-08-30 04:04:00,70.3,65.6,29.96,West,270,0.0,0.0,85,0.00,,---,0.00,VWS V14.01,2013-08-30 08:04:00,
2013-08-30 04:09:00,70.1,65.1,29.96,SSW,202,0.0,0.0,84,0.00,,---,0.00,VWS V14.01,2013-08-30 08:09:00,
2013-08-30 04:14:00,70.1,65.1,29.96,SSW,202,0.0,0.0,84,0.00,,---,0.00,VWS V14.01,2013-08-30 08:14:00,
2013-08-30 04:19:00,70.1,65.1,29.95,SSW,202,0.0,0.0,84,0.00,,---,0.00,VWS V14.01,2013-08-30 08:19:00,
2013-08-30 04:24:00,70.1,65.1,29.95,SW,225,0.0,0.0,84,0.00,,---,0.00,VWS V14.01,2013-08-30 08:24:00,
2013-08-30 04:29:00,69.9,65.2,29.95,SSW,202,0.0,0.0,85,0.00,,---,0.00,VWS V14.01,2013-08-30 08:29:00,
2013-08-30 04:34:00,69.9,65.2,29.95,SW,225,0.0,0.0,85,0.00,,---,0.00,VWS V14.01,2013-08-30 08:34:00,
2013-08-30 04:39:00,69.9,65.2,29.95,SW,225,0.0,0.0,85,0.00,,---,0.00,VWS V14.01,2013-08-30 08:39:00,
2013-08-30 04:44:00,69.9,65.2,29.94,South,180,0.0,0.0,85,0.00,,---,0.00,VWS V14.01,2013-08-30 08:44:00,
2013-08-30 04:49:00,69.9,65.2,29.94,South,180,0.0,0.0,85,0.00,,---,0.00,VWS V14.01,2013-08-30 08:49:00,
2013-08-30 04:54:00,69.9,65.2,29.94,SSE,158,0.0,0.0,85,0.00,,---,0.00,VWS V14.01,2013-08-30 08:54:00,
2013-08-30 04:59:00,69.9,65.2,29.94,SSW,202,0.0,0.0,85,0.00,,---,0.00,VWS V14.01,2013-08-30 08:59:00,
2013-08-30 05:04:00,69.9,65.2,29.93,South,180,0.0,0.0,85,0.00,,---,0.00,VWS V14.01,2013-08-30 09:04:00,
2013-08-30 05:09:00,69.9,65.2,29.93,SSW,202,0.0,0.0,85,0.00,,---,0.00,VWS V14.01,2013-08-30 09:09:00,
2013-08-30 05:14:00,69.9,65.5,29.93,SW,225,0.0,0.0,86,0.00,,---,0.00,VWS V14.01,2013-08-30 09:14:00,
2013-08-30 05:19:00,69.9,65.5,29.93,SSW,202,0.0,0.0,86,0.00,,---,0.00,VWS V14.01,2013-08-30 09:19:00,
2013-08-30 05:24:00,69.9,65.5,29.92,SSE,158,0.0,0.0,86,0.00,,---,0.00,VWS V14.01,2013-08-30 09:24:00,
2013-08-30 05:29:00,69.9,65.5,29.92,SSE,158,0.0,0.0,86,0.00,,---,0.00,VWS V14.01,2013-08-30 09:29:00,
2013-08-30 05:34:00,69.9,65.5,29.92,South,180,0.0,0.0,86,0.00,,---,0.00,VWS V14.01,2013-08-30 09:34:00,
2013-08-30 05:39:00,69.9,65.5,29.92,SSW,202,0.0,0.0,86,0.00,,---,0.00,VWS V14.01,2013-08-30 09:39:00,
2013-08-30 05:44:00,69.9,65.5,29.92,South,180,0.0,0.0,86,0.00,,---,0.00,VWS V14.01,2013-08-30 09:44:00,
2013-08-30 05:49:00,69.9,65.5,29.92,SSE,158,0.0,0.0,86,0.00,,---,0.00,VWS V14.01,2013-08-30 09:49:00,
2013-08-30 05:54:00,69.9,65.5,29.91,SSW,202,0.0,0.0,86,0.00,,---,0.00,VWS V14.01,2013-08-30 09:54:00,
2013-08-30 05:59:00,70.1,65.7,29.91,SW,225,0.0,0.0,86,0.00,,---,0.00,VWS V14.01,2013-08-30 09:59:00,
2013-08-30 06:04:00,70.1,65.7,29.91,SSW,202,0.0,0.0,86,0.00,,---,0.00,VWS V14.01,2013-08-30 10:04:00,
2013-08-30 06:09:00,70.1,65.7,29.91,SW,225,0.0,0.0,86,0.00,,---,0.00,VWS V14.01,2013-08-30 10:09:00,
2013-08-30 06:14:00,70.1,65.7,29.92,SSE,158,0.0,0.0,86,0.00,,---,0.00,VWS V14.01,2013-08-30 10:14:00,
2013-08-30 06:19:00,70.1,65.7,29.92,SSW,202,0.0,0.0,86,0.00,,---,0.00,VWS V14.01,2013-08-30 10:19:00,
2013-08-30 06:24:00,70.1,65.7,29.91,SW,225,0.0,0.0,86,0.02,,---,0.02,VWS V14.01,2013-08-30 10:24:00,
2013-08-30 06:29:00,70.1,65.7,29.92,SSW,202,0.0,0.0,86,0.02,,---,0.02,VWS V14.01,2013-08-30 10:29:00,
2013-08-30 06:34:00,70.1,65.7,29.92,SSW,202,0.0,0.0,86,0.02,,---,0.02,VWS V14.01,2013-08-30 10:34:00,
2013-08-30 06:39:00,70.1,65.7,29.92,WSW,248,0.0,0.0,86,0.02,,---,0.02,VWS V14.01,2013-08-30 10:39:00,
2013-08-30 06:44:00,70.1,65.7,29.92,SW,225,0.0,0.0,86,0.02,,---,0.02,VWS V14.01,2013-08-30 10:44:00,
2013-08-30 06:49:00,70.1,65.7,29.92,SSW,202,0.0,0.0,86,0.02,,---,0.02,VWS V14.01,2013-08-30 10:49:00,
2013-08-30 06:54:00,70.1,65.7,29.92,SW,225,0.0,0.0,86,0.02,,---,0.02,VWS V14.01,2013-08-30 10:54:00,
2013-08-30 06:59:00,70.1,65.7,29.92,WSW,248,0.0,0.0,86,0.02,,---,0.02,VWS V14.01,2013-08-30 10:59:00,
2013-08-30 07:04:00,69.9,65.5,29.92,SW,225,0.0,0.0,86,0.02,,---,0.02,VWS V14.01,2013-08-30 11:04:00,
2013-08-30 07:09:00,70.1,65.7,29.92,SSW,202,0.0,0.0,86,0.02,,---,0.02,VWS V14.01,2013-08-30 11:09:00,
2013-08-30 07:14:00,69.9,65.5,29.92,SSW,202,0.0,0.0,86,0.02,,---,0.02,VWS V14.01,2013-08-30 11:14:00,
2013-08-30 07:19:00,69.9,65.5,29.92,SSW,202,0.0,0.0,86,0.02,,---,0.02,VWS V14.01,2013-08-30 11:19:00,
2013-08-30 07:24:00,69.9,65.5,29.92,SSW,202,0.0,0.0,86,0.02,,---,0.02,VWS V14.01,2013-08-30 11:24:00,
2013-08-30 07:29:00,69.9,65.5,29.92,SSW,202,0.0,0.0,86,0.00,,---,0.02,VWS V14.01,2013-08-30 11:29:00,
2013-08-30 07:34:00,69.9,65.5,29.92,SW,225,0.0,0.0,86,0.00,,---,0.02,VWS V14.01,2013-08-30 11:34:00,
2013-08-30 07:39:00,69.9,65.5,29.92,SSW,202,0.0,0.0,86,0.00,,---,0.02,VWS V14.01,2013-08-30 11:39:00,
2013-08-30 07:44:00,69.9,65.5,29.92,SSW,202,0.0,0.0,86,0.00,,---,0.02,VWS V14.01,2013-08-30 11:44:00,
2013-08-30 07:49:00,69.9,65.5,29.92,SSW,202,0.0,0.0,86,0.00,,---,0.02,VWS V14.01,2013-08-30 11:49:00,
2013-08-30 07:54:00,69.9,65.5,29.92,SSW,202,0.0,0.0,86,0.00,,---,0.02,VWS V14.01,2013-08-30 11:54:00,
2013-08-30 07:59:00,69.9,65.5,29.91,South,180,0.0,0.0,86,0.00,,---,0.02,VWS V14.01,2013-08-30 11:59:00,
2013-08-30 08:04:00,69.9,65.5,29.91,SSW,202,0.0,0.0,86,0.00,,---,0.02,VWS V14.01,2013-08-30 12:04:00,
2013-08-30 08:09:00,69.9,65.5,29.90,SSW,202,0.0,0.0,86,0.00,,---,0.02,VWS V14.01,2013-08-30 12:09:00,
2013-08-30 08:14:00,70.1,65.4,29.90,SSW,202,0.0,0.0,85,0.00,,---,0.02,VWS V14.01,2013-08-30 12:14:00,
2013-08-30 08:19:00,70.3,65.6,29.89,WSW,248,0.0,0.0,85,0.00,,---,0.02,VWS V14.01,2013-08-30 12:19:00,
2013-08-30 08:24:00,70.3,65.6,29.89,SSW,202,0.0,0.0,85,0.00,,---,0.02,VWS V14.01,2013-08-30 12:24:00,
2013-08-30 08:29:00,70.5,65.8,29.89,SSE,158,6.9,6.9,85,0.00,,---,0.02,VWS V14.01,2013-08-30 12:29:00,
2013-08-30 08:34:00,70.7,65.6,29.88,SSE,158,0.0,0.0,84,0.00,,---,0.02,VWS V14.01,2013-08-30 12:34:00,
2013-08-30 08:39:00,70.8,65.7,29.88,SW,225,0.0,0.0,84,0.00,,---,0.02,VWS V14.01,2013-08-30 12:39:00,
2013-08-30 08:44:00,70.8,65.4,29.89,WSW,248,0.0,0.0,83,0.00,,---,0.02,VWS V14.01,2013-08-30 12:44:00,
2013-08-30 08:49:00,71.2,65.8,29.89,SW,225,0.0,0.0,83,0.00,,---,0.02,VWS V14.01,2013-08-30 12:49:00,
2013-08-30 08:54:00,71.2,65.8,29.90,WSW,248,0.0,0.0,83,0.00,,---,0.02,VWS V14.01,2013-08-30 12:54:00,
2013-08-30 08:59:00,71.4,66.0,29.89,SSW,202,0.0,0.0,83,0.00,,---,0.02,VWS V14.01,2013-08-30 12:59:00,
2013-08-30 09:04:00,71.6,65.8,29.89,SW,225,0.0,0.0,82,0.00,,---,0.02,VWS V14.01,2013-08-30 13:04:00,
2013-08-30 09:09:00,71.7,65.9,29.89,WSW,248,1.3,1.3,82,0.00,,---,0.02,VWS V14.01,2013-08-30 13:09:00,
2013-08-30 09:14:00,71.7,65.9,29.88,SSW,202,0.0,0.0,82,0.00,,---,0.02,VWS V14.01,2013-08-30 13:14:00,
2013-08-30 09:19:00,71.9,66.1,29.88,SW,225,1.7,1.7,82,0.00,,---,0.02,VWS V14.01,2013-08-30 13:19:00,
2013-08-30 09:24:00,71.9,66.1,29.87,SSW,202,0.0,2.0,82,0.00,,---,0.02,VWS V14.01,2013-08-30 13:24:00,
2013-08-30 09:29:00,72.1,66.3,29.87,WSW,248,0.0,6.4,82,0.00,,---,0.02,VWS V14.01,2013-08-30 13:29:00,
2013-08-30 09:34:00,72.3,66.5,29.87,South,180,0.0,0.0,82,0.00,,---,0.02,VWS V14.01,2013-08-30 13:34:00,
2013-08-30 09:39:00,72.6,66.4,29.87,WSW,248,0.0,0.0,81,0.00,,---,0.02,VWS V14.01,2013-08-30 13:39:00,
2013-08-30 09:44:00,73.0,66.8,29.87,South,180,0.0,0.0,81,0.00,,---,0.02,VWS V14.01,2013-08-30 13:44:00,
2013-08-30 09:49:00,73.2,67.0,29.87,SW,225,1.7,1.7,81,0.00,,---,0.02,VWS V14.01,2013-08-30 13:49:00,
2013-08-30 09:54:00,73.4,66.9,29.86,SW,225,0.0,0.0,80,0.00,,---,0.02,VWS V14.01,2013-08-30 13:54:00,
2013-08-30 09:59:00,73.9,67.3,29.87,SSW,202,1.7,2.6,80,0.00,,---,0.02,VWS V14.01,2013-08-30 13:59:00,
2013-08-30 10:04:00,74.1,67.5,29.87,SW,225,4.6,4.6,80,0.00,,---,0.02,VWS V14.01,2013-08-30 14:04:00,
2013-08-30 10:09:00,74.4,67.5,29.87,SW,225,7.1,7.1,79,0.00,,---,0.02,VWS V14.01,2013-08-30 14:09:00,
2013-08-30 10:15:00,74.8,67.9,29.87,West,270,4.6,4.6,79,0.00,,---,0.02,VWS V14.01,2013-08-30 14:15:00,
2013-08-30 10:20:00,75.3,68.0,29.87,SSW,202,0.0,0.8,78,0.00,,---,0.02,VWS V14.01,2013-08-30 14:20:00,
2013-08-30 10:25:00,75.7,68.4,29.87,WSW,248,4.0,4.0,78,0.00,,---,0.02,VWS V14.01,2013-08-30 14:25:00,
2013-08-30 10:30:00,75.9,68.6,29.87,SW,225,3.5,3.5,78,0.00,,---,0.02,VWS V14.01,2013-08-30 14:30:00,
2013-08-30 10:35:00,76.6,68.9,29.87,SW,225,2.2,2.2,77,0.00,,---,0.02,VWS V14.01,2013-08-30 14:35:00,
2013-08-30 10:40:00,76.8,68.7,29.87,West,270,5.5,5.5,76,0.00,,---,0.02,VWS V14.01,2013-08-30 14:40:00,
2013-08-30 10:45:00,77.0,68.9,29.87,SSW,202,1.5,1.5,76,0.00,,---,0.02,VWS V14.01,2013-08-30 14:45:00,
2013-08-30 10:50:00,77.5,68.6,29.87,SSW,202,8.7,8.7,74,0.00,,---,0.02,VWS V14.01,2013-08-30 14:50:00,
2013-08-30 10:55:00,77.7,68.8,29.86,WSW,248,5.8,5.8,74,0.00,,---,0.02,VWS V14.01,2013-08-30 14:55:00,
2013-08-30 11:00:00,78.0,69.1,29.86,SW,225,2.2,2.2,74,0.00,,---,0.02,VWS V14.01,2013-08-30 15:00:00,
2013-08-30 11:05:00,78.6,69.6,29.86,West,270,0.0,0.6,74,0.00,,---,0.02,VWS V14.01,2013-08-30 15:05:00,
2013-08-30 11:10:00,78.6,68.8,29.85,SSW,202,2.6,2.6,72,0.00,,---,0.02,VWS V14.01,2013-08-30 15:10:00,
2013-08-30 11:15:00,78.9,69.1,29.85,SSW,202,5.3,5.3,72,0.00,,---,0.02,VWS V14.01,2013-08-30 15:15:00,
2013-08-30 11:20:00,79.3,69.5,29.85,SW,225,4.9,4.9,72,0.00,,---,0.02,VWS V14.01,2013-08-30 15:20:00,
2013-08-30 11:25:00,79.5,69.7,29.85,SW,225,2.9,2.9,72,0.00,,---,0.02,VWS V14.01,2013-08-30 15:25:00,
2013-08-30 11:30:00,79.7,69.9,29.85,WSW,248,7.6,7.6,72,0.00,,---,0.02,VWS V14.01,2013-08-30 15:30:00,
2013-08-30 11:35:00,80.0,69.8,29.85,SSW,202,8.0,8.0,71,0.00,,---,0.02,VWS V14.01,2013-08-30 15:35:00,
2013-08-30 11:40:00,80.4,69.3,29.85,SW,225,16.3,16.3,69,0.00,,---,0.02,VWS V14.01,2013-08-30 15:40:00,
2013-08-30 11:45:00,80.4,69.3,29.85,WSW,248,7.8,7.8,69,0.00,,---,0.02,VWS V14.01,2013-08-30 15:45:00,
2013-08-30 11:50:00,80.6,69.5,29.86,WSW,248,7.6,7.6,69,0.00,,---,0.02,VWS V14.01,2013-08-30 15:50:00,
2013-08-30 11:55:00,80.6,69.5,29.85,South,180,4.4,4.4,69,0.00,,---,0.02,VWS V14.01,2013-08-30 15:55:00,
2013-08-30 12:00:00,80.4,69.3,29.85,West,270,8.2,8.2,69,0.00,,---,0.02,VWS V14.01,2013-08-30 16:00:00,
2013-08-30 12:05:00,80.4,69.7,29.85,SW,225,7.3,7.3,70,0.00,,---,0.02,VWS V14.01,2013-08-30 16:05:00,
2013-08-30 12:10:00,80.7,69.6,29.84,West,270,8.2,8.2,69,0.00,,---,0.02,VWS V14.01,2013-08-30 16:10:00,
2013-08-30 12:15:00,81.1,69.6,29.84,WSW,248,6.9,6.9,68,0.00,,---,0.02,VWS V14.01,2013-08-30 16:15:00,
2013-08-30 12:20:00,81.3,69.3,29.84,SSW,202,7.3,8.7,67,0.00,,---,0.02,VWS V14.01,2013-08-30 16:20:00,
2013-08-30 12:25:00,81.5,69.5,29.84,SW,225,7.8,7.8,67,0.00,,---,0.02,VWS V14.01,2013-08-30 16:25:00,
2013-08-30 12:30:00,82.0,69.5,29.84,SW,225,7.8,7.8,66,0.00,,---,0.02,VWS V14.01,2013-08-30 16:30:00,
2013-08-30 12:35:00,82.2,69.3,29.84,SSW,202,8.2,9.6,65,0.00,,---,0.02,VWS V14.01,2013-08-30 16:35:00,
2013-08-30 12:40:00,82.2,69.3,29.84,WSW,248,3.1,3.1,65,0.00,,---,0.02,VWS V14.01,2013-08-30 16:40:00,
2013-08-30 12:45:00,82.5,69.1,29.82,West,270,10.2,10.2,64,0.00,,---,0.02,VWS V14.01,2013-08-30 16:45:00,
2013-08-30 12:50:00,82.5,69.1,29.82,WSW,248,5.3,8.2,64,0.00,,---,0.02,VWS V14.01,2013-08-30 16:50:00,
2013-08-30 12:55:00,82.9,69.0,29.83,SSW,202,4.2,4.2,63,0.00,,---,0.02,VWS V14.01,2013-08-30 16:55:00,
2013-08-30 13:00:00,82.9,68.6,29.83,SSW,202,8.2,8.2,62,0.00,,---,0.02,VWS V14.01,2013-08-30 17:00:00,
2013-08-30 13:05:00,83.1,68.7,29.83,SW,225,11.8,11.8,62,0.00,,---,0.02,VWS V14.01,2013-08-30 17:05:00,
2013-08-30 13:10:00,83.1,68.7,29.82,SSW,202,12.3,12.3,62,0.00,,---,0.02,VWS V14.01,2013-08-30 17:10:00,
2013-08-30 13:15:00,83.1,68.7,29.83,West,270,7.1,7.1,62,0.00,,---,0.02,VWS V14.01,2013-08-30 17:15:00,
2013-08-30 13:20:00,83.3,68.9,29.83,West,270,8.7,8.7,62,0.00,,---,0.02,VWS V14.01,2013-08-30 17:20:00,
2013-08-30 13:25:00,83.3,68.9,29.83,West,270,6.4,6.4,62,0.00,,---,0.02,VWS V14.01,2013-08-30 17:25:00,
2013-08-30 13:30:00,83.4,69.0,29.83,SW,225,8.2,8.2,62,0.00,,---,0.02,VWS V14.01,2013-08-30 17:30:00,
2013-08-30 13:35:00,83.8,69.4,29.82,SSW,202,5.8,6.0,62,0.00,,---,0.02,VWS V14.01,2013-08-30 17:35:00,
2013-08-30 13:40:00,83.8,69.9,29.81,ESE,112,0.0,0.0,63,0.00,,---,0.02,VWS V14.01,2013-08-30 17:40:00,
2013-08-30 13:45:00,83.8,69.4,29.81,South,180,8.7,8.7,62,0.00,,---,0.02,VWS V14.01,2013-08-30 17:45:00,
2013-08-30 13:50:00,83.8,69.4,29.81,SW,225,1.3,8.2,62,0.00,,---,0.02,VWS V14.01,2013-08-30 17:50:00,
2013-08-30 13:55:00,83.8,69.4,29.81,SSW,202,5.3,5.3,62,0.00,,---,0.02,VWS V14.01,2013-08-30 17:55:00,
2013-08-30 14:00:00,84.0,69.6,29.81,SE,135,6.4,6.4,62,0.00,,---,0.02,VWS V14.01,2013-08-30 18:00:00,
2013-08-30 14:05:00,84.2,69.8,29.81,West,270,7.6,7.6,62,0.00,,---,0.02,VWS V14.01,2013-08-30 18:05:00,
2013-08-30 14:10:00,84.2,69.8,29.80,WSW,248,7.3,7.3,62,0.00,,---,0.02,VWS V14.01,2013-08-30 18:10:00,
2013-08-30 14:15:00,84.3,69.9,29.81,WNW,292,7.8,7.8,62,0.00,,---,0.02,VWS V14.01,2013-08-30 18:15:00,
2013-08-30 14:20:00,84.5,69.6,29.80,SSW,202,4.9,7.8,61,0.00,,---,0.02,VWS V14.01,2013-08-30 18:20:00,
2013-08-30 14:25:00,84.5,69.6,29.79,SW,225,10.5,10.5,61,0.00,,---,0.02,VWS V14.01,2013-08-30 18:25:00,
2013-08-30 14:30:00,84.7,70.2,29.79,SW,225,6.4,6.4,62,0.00,,---,0.02,VWS V14.01,2013-08-30 18:30:00,
2013-08-30 14:35:00,84.9,70.0,29.79,SSW,202,4.0,5.1,61,0.00,,---,0.02,VWS V14.01,2013-08-30 18:35:00,
2013-08-30 14:40:00,84.9,69.5,29.79,SW,225,7.3,7.3,60,0.00,,---,0.02,VWS V14.01,2013-08-30 18:40:00,
2013-08-30 14:45:00,84.9,70.0,29.79,SSW,202,13.8,13.8,61,0.00,,---,0.02,VWS V14.01,2013-08-30 18:45:00,
2013-08-30 14:50:00,85.1,69.7,29.79,SW,225,10.9,11.8,60,0.00,,---,0.02,VWS V14.01,2013-08-30 18:50:00,
2013-08-30 14:55:00,85.1,69.7,29.78,SW,225,0.0,0.0,60,0.00,,---,0.02,VWS V14.01,2013-08-30 18:55:00,
2013-08-30 15:00:00,85.1,70.2,29.78,SW,225,7.3,7.3,61,0.00,,---,0.02,VWS V14.01,2013-08-30 19:00:00,
2013-08-30 15:05:00,85.2,70.2,29.77,SW,225,8.2,10.0,61,0.00,,---,0.02,VWS V14.01,2013-08-30 19:05:00,
2013-08-30 15:10:00,85.2,69.8,29.77,SW,225,3.1,3.1,60,0.00,,---,0.02,VWS V14.01,2013-08-30 19:10:00,
2013-08-30 15:15:00,85.6,70.6,29.76,WSW,248,10.0,10.0,61,0.00,,---,0.02,VWS V14.01,2013-08-30 19:15:00,
2013-08-30 15:20:00,85.8,70.3,29.76,SW,225,7.8,7.8,60,0.00,,---,0.02,VWS V14.01,2013-08-30 19:20:00,
2013-08-30 15:25:00,85.8,70.3,29.76,SSW,202,4.9,4.9,60,0.00,,---,0.02,VWS V14.01,2013-08-30 19:25:00,
2013-08-30 15:30:00,85.8,70.3,29.75,SW,225,7.1,7.1,60,0.00,,---,0.02,VWS V14.01,2013-08-30 19:30:00,
2013-08-30 15:35:00,85.8,70.3,29.75,SW,225,5.5,5.5,60,0.00,,---,0.02,VWS V14.01,2013-08-30 19:35:00,
2013-08-30 15:40:00,86.0,70.0,29.75,WSW,248,10.9,10.9,59,0.00,,---,0.02,VWS V14.01,2013-08-30 19:40:00,
2013-08-30 15:45:00,86.0,70.5,29.74,SSW,202,4.9,4.9,60,0.00,,---,0.02,VWS V14.01,2013-08-30 19:45:00,
2013-08-30 15:50:00,86.0,70.5,29.74,SW,225,7.3,7.3,60,0.00,,---,0.02,VWS V14.01,2013-08-30 19:50:00,
2013-08-30 15:55:00,86.1,70.6,29.74,SW,225,5.8,5.8,60,0.00,,---,0.02,VWS V14.01,2013-08-30 19:55:00,
2013-08-30 16:00:00,86.1,70.6,29.74,West,270,7.3,7.3,60,0.00,,---,0.02,VWS V14.01,2013-08-30 20:00:00,
2013-08-30 16:05:00,86.3,70.3,29.74,SSW,202,6.7,10.2,59,0.00,,---,0.02,VWS V14.01,2013-08-30 20:05:00,
2013-08-30 16:10:00,86.3,70.3,29.74,SSW,202,8.9,8.9,59,0.00,,---,0.02,VWS V14.01,2013-08-30 20:10:00,
2013-08-30 16:15:00,86.1,70.1,29.74,SW,225,9.8,9.8,59,0.00,,---,0.02,VWS V14.01,2013-08-30 20:15:00,
2013-08-30 16:20:00,86.3,70.8,29.74,WSW,248,1.5,4.9,60,0.00,,---,0.02,VWS V14.01,2013-08-30 20:20:00,
2013-08-30 16:25:00,86.5,70.5,29.74,SW,225,6.2,6.2,59,0.00,,---,0.02,VWS V14.01,2013-08-30 20:25:00,
2013-08-30 16:30:00,86.5,70.5,29.73,WSW,248,5.5,5.5,59,0.00,,---,0.02,VWS V14.01,2013-08-30 20:30:00,
2013-08-30 16:35:00,86.5,70.5,29.73,SW,225,8.2,8.5,59,0.00,,---,0.02,VWS V14.01,2013-08-30 20:35:00,
2013-08-30 16:40:00,86.5,70.5,29.73,SSW,202,9.3,9.3,59,0.00,,---,0.02,VWS V14.01,2013-08-30 20:40:00,
2013-08-30 16:45:00,86.5,70.5,29.73,SW,225,8.7,11.6,59,0.00,,---,0.02,VWS V14.01,2013-08-30 20:45:00,
2013-08-30 16:50:00,86.3,70.3,29.73,SW,225,5.5,10.5,59,0.00,,---,0.02,VWS V14.01,2013-08-30 20:50:00,
2013-08-30 16:55:00,86.3,70.3,29.73,SW,225,10.7,10.7,59,0.00,,---,0.02,VWS V14.01,2013-08-30 20:55:00,
2013-08-30 17:00:00,86.1,70.1,29.73,West,270,9.1,9.1,59,0.00,,---,0.02,VWS V14.01,2013-08-30 21:00:00,
2013-08-30 17:05:00,86.1,70.6,29.72,SW,225,5.5,7.1,60,0.00,,---,0.02,VWS V14.01,2013-08-30 21:05:00,
2013-08-30 17:10:00,86.1,70.6,29.72,SW,225,8.2,8.2,60,0.00,,---,0.02,VWS V14.01,2013-08-30 21:10:00,
2013-08-30 17:15:00,86.1,70.6,29.72,SSW,202,6.0,7.1,60,0.00,,---,0.02,VWS V14.01,2013-08-30 21:15:00,
2013-08-30 17:20:00,86.1,70.6,29.72,WSW,248,7.1,8.5,60,0.00,,---,0.02,VWS V14.01,2013-08-30 21:20:00,
2013-08-30 17:25:00,86.1,70.6,29.72,SW,225,8.5,8.5,60,0.00,,---,0.02,VWS V14.01,2013-08-30 21:25:00,
2013-08-30 17:30:00,86.3,70.8,29.73,WSW,248,2.9,2.9,60,0.00,,---,0.02,VWS V14.01,2013-08-30 21:30:00,
2013-08-30 17:35:00,86.5,71.0,29.73,SW,225,5.1,6.7,60,0.00,,---,0.02,VWS V14.01,2013-08-30 21:35:00,
2013-08-30 17:40:00,86.1,70.6,29.71,SSW,202,7.8,7.8,60,0.00,,---,0.02,VWS V14.01,2013-08-30 21:40:00,
2013-08-30 17:46:00,85.8,70.8,29.71,SW,225,6.4,6.4,61,0.00,,---,0.02,VWS V14.01,2013-08-30 21:46:00,
2013-08-30 17:51:00,85.6,70.6,29.72,West,270,4.9,4.9,61,0.00,,---,0.02,VWS V14.01,2013-08-30 21:51:00,
2013-08-30 17:56:00,85.2,70.7,29.73,WSW,248,7.6,7.6,62,0.00,,---,0.02,VWS V14.01,2013-08-30 21:56:00,
2013-08-30 18:01:00,85.1,70.6,29.73,SSW,202,5.5,5.5,62,0.00,,---,0.02,VWS V14.01,2013-08-30 22:01:00,
2013-08-30 18:06:00,84.9,70.4,29.72,SSW,202,7.1,7.1,62,0.00,,---,0.02,VWS V14.01,2013-08-30 22:06:00,
2013-08-30 18:11:00,84.7,70.7,29.72,SSW,202,4.2,4.2,63,0.00,,---,0.02,VWS V14.01,2013-08-30 22:11:00,
2013-08-30 18:16:00,84.5,70.5,29.72,SW,225,3.8,3.8,63,0.00,,---,0.02,VWS V14.01,2013-08-30 22:16:00,
2013-08-30 18:21:00,84.5,71.0,29.72,SW,225,6.2,6.2,64,0.00,,---,0.02,VWS V14.01,2013-08-30 22:21:00,
2013-08-30 18:26:00,84.3,70.8,29.73,WSW,248,5.5,7.1,64,0.00,,---,0.02,VWS V14.01,2013-08-30 22:26:00,
2013-08-30 18:31:00,84.3,70.8,29.73,WNW,292,1.7,1.7,64,0.00,,---,0.02,VWS V14.01,2013-08-30 22:31:00,
2013-08-30 18:36:00,84.3,71.3,29.74,West,270,4.0,4.0,65,0.00,,---,0.02,VWS V14.01,2013-08-30 22:36:00,
2013-08-30 18:41:00,84.0,72.3,29.75,WNW,292,0.0,3.1,68,0.00,,---,0.02,VWS V14.01,2013-08-30 22:41:00,
2013-08-30 18:46:00,82.2,71.9,29.75,NW,315,2.9,2.9,71,0.02,,---,0.04,VWS V14.01,2013-08-30 22:46:00,
2013-08-30 18:51:00,80.4,71.8,29.76,SSW,202,3.1,3.1,75,0.10,,---,0.12,VWS V14.01,2013-08-30 22:51:00,
2013-08-30 18:56:00,78.4,70.6,29.73,West,270,0.0,0.0,77,0.28,,---,0.31,VWS V14.01,2013-08-30 22:56:00,
2013-08-30 19:01:00,77.5,70.1,29.74,WSW,248,0.0,0.0,78,0.30,,---,0.33,VWS V14.01,2013-08-30 23:01:00,
2013-08-30 19:06:00,77.1,70.5,29.74,SW,225,0.0,0.0,80,0.30,,---,0.33,VWS V14.01,2013-08-30 23:06:00,
2013-08-30 19:11:00,76.8,70.9,29.74,WSW,248,0.0,0.0,82,0.30,,---,0.33,VWS V14.01,2013-08-30 23:11:00,
2013-08-30 19:16:00,76.8,70.9,29.73,NW,315,0.0,0.0,82,0.30,,---,0.33,VWS V14.01,2013-08-30 23:16:00,
2013-08-30 19:21:00,76.8,70.9,29.72,West,270,0.0,0.0,82,0.30,,---,0.33,VWS V14.01,2013-08-30 23:21:00,
2013-08-30 19:26:00,76.6,71.1,29.72,West,270,0.0,0.0,83,0.30,,---,0.33,VWS V14.01,2013-08-30 23:26:00,
2013-08-30 19:31:00,76.6,71.1,29.73,West,270,0.0,0.0,83,0.30,,---,0.33,VWS V14.01,2013-08-30 23:31:00,
2013-08-30 19:36:00,76.2,71.0,29.73,WSW,248,0.0,0.0,84,0.32,,---,0.35,VWS V14.01,2013-08-30 23:36:00,
2013-08-30 19:41:00,76.2,71.0,29.73,West,270,0.0,0.0,84,0.32,,---,0.35,VWS V14.01,2013-08-30 23:41:00,
2013-08-30 19:46:00,76.1,71.3,29.74,NNE,22,0.0,0.0,85,0.30,,---,0.35,VWS V14.01,2013-08-30 23:46:00,
2013-08-30 19:51:00,75.9,71.1,29.74,NNW,338,0.0,0.0,85,0.22,,---,0.35,VWS V14.01,2013-08-30 23:51:00,
2013-08-30 19:56:00,75.9,71.4,29.74,NNW,338,0.0,0.0,86,0.06,,---,0.35,VWS V14.01,2013-08-30 23:56:00,
2013-08-30 20:01:00,75.9,71.4,29.74,WNW,292,0.0,0.0,86,0.02,,---,0.35,VWS V14.01,2013-08-31 00:01:00,
2013-08-30 20:06:00,75.9,71.4,29.74,WSW,248,0.0,0.0,86,0.02,,---,0.35,VWS V14.01,2013-08-31 00:06:00,
2013-08-30 20:11:00,75.9,71.4,29.75,WNW,292,0.0,0.0,86,0.02,,---,0.35,VWS V14.01,2013-08-31 00:11:00,
2013-08-30 20:16:00,75.9,71.4,29.75,NW,315,0.0,0.0,86,0.02,,---,0.35,VWS V14.01,2013-08-31 00:16:00,
2013-08-30 20:21:00,75.7,71.2,29.75,NW,315,0.0,0.0,86,0.02,,---,0.35,VWS V14.01,2013-08-31 00:21:00,
2013-08-30 20:26:00,75.9,71.4,29.75,WNW,292,0.0,0.0,86,0.02,,---,0.35,VWS V14.01,2013-08-31 00:26:00,
2013-08-30 20:31:00,75.9,71.4,29.75,NW,315,0.0,0.0,86,0.02,,---,0.35,VWS V14.01,2013-08-31 00:31:00,
2013-08-30 20:36:00,75.9,71.4,29.76,NNW,338,0.0,0.0,86,0.00,,---,0.35,VWS V14.01,2013-08-31 00:36:00,
2013-08-30 20:41:00,75.7,71.6,29.76,West,270,0.0,0.0,87,0.00,,---,0.35,VWS V14.01,2013-08-31 00:41:00,
2013-08-30 20:46:00,75.7,71.6,29.76,West,270,0.0,0.0,87,0.00,,---,0.35,VWS V14.01,2013-08-31 00:46:00,
2013-08-30 20:51:00,75.7,71.2,29.76,NW,315,0.0,0.0,86,0.00,,---,0.35,VWS V14.01,2013-08-31 00:51:00,
2013-08-30 20:56:00,75.7,71.2,29.76,NW,315,0.0,0.0,86,0.00,,---,0.35,VWS V14.01,2013-08-31 00:56:00,
2013-08-30 21:01:00,75.7,71.2,29.76,NNW,338,0.0,0.0,86,0.00,,---,0.35,VWS V14.01,2013-08-31 01:01:00,
2013-08-30 21:06:00,75.7,71.2,29.76,NNW,338,0.0,0.0,86,0.00,,---,0.35,VWS V14.01,2013-08-31 01:06:00,
2013-08-30 21:11:00,75.7,71.2,29.77,NNE,22,0.0,0.0,86,0.00,,---,0.35,VWS V14.01,2013-08-31 01:11:00,
2013-08-30 21:16:00,75.7,71.2,29.77,NW,315,0.0,0.0,86,0.00,,---,0.35,VWS V14.01,2013-08-31 01:16:00,
2013-08-30 21:21:00,75.7,71.2,29.77,NNE,22,0.0,0.0,86,0.00,,---,0.35,VWS V14.01,2013-08-31 01:21:00,
2013-08-30 21:26:00,75.7,71.2,29.77,ENE,68,0.0,0.0,86,0.00,,---,0.35,VWS V14.01,2013-08-31 01:26:00,
2013-08-30 21:31:00,75.7,71.2,29.77,NW,315,0.0,0.0,86,0.00,,---,0.35,VWS V14.01,2013-08-31 01:31:00,
2013-08-30 21:36:00,75.5,71.0,29.78,NNW,338,0.0,0.0,86,0.00,,---,0.35,VWS V14.01,2013-08-31 01:36:00,
2013-08-30 21:41:00,75.3,70.8,29.77,NE,45,0.0,0.0,86,0.00,,---,0.35,VWS V14.01,2013-08-31 01:41:00,
2013-08-30 21:46:00,75.3,70.8,29.78,NE,45,0.0,0.0,86,0.00,,---,0.35,VWS V14.01,2013-08-31 01:46:00,
2013-08-30 21:51:00,75.0,70.5,29.78,ENE,68,0.0,0.0,86,0.00,,---,0.35,VWS V14.01,2013-08-31 01:51:00,
2013-08-30 21:56:00,74.8,70.0,29.77,NNE,22,0.0,0.0,85,0.00,,---,0.35,VWS V14.01,2013-08-31 01:56:00,
2013-08-30 22:01:00,74.8,70.0,29.77,NW,315,0.0,0.0,85,0.00,,---,0.35,VWS V14.01,2013-08-31 02:01:00,
2013-08-30 22:06:00,74.4,69.6,29.77,NW,315,0.0,0.0,85,0.00,,---,0.35,VWS V14.01,2013-08-31 02:06:00,
2013-08-30 22:11:00,74.4,69.6,29.78,NW,315,0.0,0.0,85,0.00,,---,0.35,VWS V14.01,2013-08-31 02:11:00,
2013-08-30 22:16:00,74.3,69.5,29.78,NE,45,0.0,0.0,85,0.00,,---,0.35,VWS V14.01,2013-08-31 02:16:00,
2013-08-30 22:21:00,74.1,69.3,29.77,ENE,68,0.0,0.0,85,0.00,,---,0.35,VWS V14.01,2013-08-31 02:21:00,
2013-08-30 22:26:00,74.1,69.3,29.77,East,90,0.0,0.0,85,0.00,,---,0.35,VWS V14.01,2013-08-31 02:26:00,
2013-08-30 22:31:00,73.9,69.1,29.77,NNE,22,0.0,0.0,85,0.00,,---,0.35,VWS V14.01,2013-08-31 02:31:00,
2013-08-30 22:36:00,73.7,68.6,29.77,NE,45,0.0,0.0,84,0.00,,---,0.35,VWS V14.01,2013-08-31 02:36:00,
2013-08-30 22:41:00,73.5,68.4,29.78,West,270,0.0,0.0,84,0.00,,---,0.35,VWS V14.01,2013-08-31 02:41:00,
2013-08-30 22:46:00,73.4,67.9,29.77,NW,315,0.0,0.0,83,0.00,,---,0.35,VWS V14.01,2013-08-31 02:46:00,
2013-08-30 22:51:00,73.2,67.7,29.77,NNE,22,0.0,0.0,83,0.00,,---,0.35,VWS V14.01,2013-08-31 02:51:00,
2013-08-30 22:56:00,73.0,67.2,29.77,North,0,0.0,0.0,82,0.00,,---,0.35,VWS V14.01,2013-08-31 02:56:00,
2013-08-30 23:01:00,72.6,66.8,29.77,NW,315,0.0,0.0,82,0.00,,---,0.35,VWS V14.01,2013-08-31 03:01:00,
2013-08-30 23:06:00,72.5,66.7,29.77,North,0,0.0,0.0,82,0.00,,---,0.35,VWS V14.01,2013-08-31 03:06:00,
2013-08-30 23:11:00,72.3,66.5,29.77,NNW,338,0.0,0.0,82,0.00,,---,0.35,VWS V14.01,2013-08-31 03:11:00,
2013-08-30 23:16:00,72.1,65.9,29.77,NE,45,0.0,0.0,81,0.00,,---,0.35,VWS V14.01,2013-08-31 03:16:00,
2013-08-30 23:21:00,71.9,65.8,29.77,NNW,338,0.0,0.0,81,0.00,,---,0.35,VWS V14.01,2013-08-31 03:21:00,
2013-08-30 23:26:00,71.9,66.1,29.78,West,270,0.0,0.0,82,0.00,,---,0.35,VWS V14.01,2013-08-31 03:26:00,
2013-08-30 23:31:00,71.7,65.9,29.78,NW,315,0.0,0.0,82,0.00,,---,0.35,VWS V14.01,2013-08-31 03:31:00,
2013-08-30 23:36:00,71.7,65.9,29.79,ENE,68,0.0,0.0,82,0.00,,---,0.35,VWS V14.01,2013-08-31 03:36:00,
2013-08-30 23:41:00,71.6,65.8,29.79,NNW,338,0.0,0.0,82,0.00,,---,0.35,VWS V14.01,2013-08-31 03:41:00,
2013-08-30 23:46:00,71.4,65.6,29.79,NNW,338,0.0,0.0,82,0.00,,---,0.35,VWS V14.01,2013-08-31 03:46:00,
2013-08-30 23:51:00,71.4,65.6,29.79,NNE,22,0.0,0.0,82,0.00,,---,0.35,VWS V14.01,2013-08-31 03:51:00,
2013-08-30 23:56:00,71.2,65.4,29.79,NNW,338,0.0,0.0,82,0.00,,---,0.35,VWS V14.01,2013-08-31 03:56:00,